Time;durP1;ratioP1;P1;durP2;ratioP2;P2;SDS_P1;SDS_P2;PMS_P1;PMS_P2;Temp;Humidity;BMP_temperature;BMP_pressure;BME280_temperature;BME280_humidity;BME280_pressure;Samples;Min_cycle;Max_cycle;Signal;HPM_P1;HPM_P2
2023/08/07 00:01:05;;;;;;;1.13;0.70;;;;;;;;;;5026125;28;20151;-68
2023/08/07 00:03:30;;;;;;;2.23;0.73;;;;;;;;;;5008307;28;20140;-66
2023/08/07 00:05:56;;;;;;;1.00;0.60;;;;;;;;;;5025769;28;20817;-68
2023/08/07 00:08:21;;;;;;;0.80;0.60;;;;;;;;;;5021623;28;20049;-66
2023/08/07 00:10:48;;;;;;;2.33;0.80;;;;;;;;;;4988302;28;20038;-68
2023/08/07 00:13:13;;;;;;;0.90;0.70;;;;;;;;;;5024895;28;20049;-64
2023/08/07 00:15:38;;;;;;;0.90;0.75;;;;;;;;;;5007398;28;20044;-67
2023/08/07 00:18:04;;;;;;;1.10;0.77;;;;;;;;;;5028114;28;20049;-67
2023/08/07 00:20:29;;;;;;;1.40;0.90;;;;;;;;;;5012040;28;20561;-67
2023/08/07 00:22:54;;;;;;;1.65;0.90;;;;;;;;;;5020560;28;20690;-65
2023/08/07 00:25:19;;;;;;;1.73;0.70;;;;;;;;;;5027462;28;20422;-66
2023/08/07 00:27:45;;;;;;;1.20;0.83;;;;;;;;;;5025506;28;20288;-68
2023/08/07 00:30:10;;;;;;;0.90;0.77;;;;;;;;;;5021668;28;20315;-67
2023/08/07 00:32:36;;;;;;;1.73;0.70;;;;;;;;;;5025843;28;20451;-67
2023/08/07 00:35:01;;;;;;;1.63;0.90;;;;;;;;;;5025161;28;20061;-68
2023/08/07 00:37:26;;;;;;;1.13;0.80;;;;;;;;;;5025223;28;20778;-68
2023/08/07 00:39:51;;;;;;;1.27;0.80;;;;;;;;;;4993966;28;20034;-64
2023/08/07 00:42:17;;;;;;;1.25;0.90;;;;;;;;;;5017205;28;20806;-66
2023/08/07 00:44:42;;;;;;;1.33;0.73;;;;;;;;;;5025969;28;20041;-66
2023/08/07 00:47:07;;;;;;;1.27;0.80;;;;;;;;;;5025781;28;20753;-67
2023/08/07 00:49:32;;;;;;;1.38;1.08;;;;;;;;;;5015498;28;20496;-63
2023/08/07 00:51:58;;;;;;;2.63;1.30;;;;;;;;;;4988313;28;20038;-71
2023/08/07 00:54:23;;;;;;;1.63;1.30;;;;;;;;;;4995967;28;21005;-67
2023/08/07 00:56:48;;;;;;;1.73;1.40;;;;;;;;;;5008111;28;20276;-63
2023/08/07 00:59:14;;;;;;;1.38;1.10;;;;;;;;;;5019119;28;20054;-68
2023/08/07 01:01:39;;;;;;;2.47;1.10;;;;;;;;;;4988326;28;20026;-66
2023/08/07 01:04:04;;;;;;;1.90;1.17;;;;;;;;;;5005825;28;20434;-69
2023/08/07 01:06:29;;;;;;;1.58;1.13;;;;;;;;;;4988176;28;20276;-67
2023/08/07 01:08:55;;;;;;;1.47;1.10;;;;;;;;;;5008187;28;20045;-65
2023/08/07 01:11:39;;;;;;;1.70;1.17;;;;;;;;;;5024560;28;20041;-67
2023/08/07 01:14:17;;;;;;;1.63;1.20;;;;;;;;;;5024922;28;20104;-69
2023/08/07 01:16:45;;;;;;;2.78;1.30;;;;;;;;;;5003459;28;20488;-66
2023/08/07 01:19:12;;;;;;;2.47;1.38;;;;;;;;;;5015445;28;20037;-67
2023/08/07 01:21:37;;;;;;;1.42;1.02;;;;;;;;;;5025017;28;20044;-66
2023/08/07 01:24:03;;;;;;;1.60;1.20;;;;;;;;;;5025154;28;20045;-67
2023/08/07 01:26:28;;;;;;;2.15;1.60;;;;;;;;;;5024899;28;20342;-67
2023/08/07 01:29:26;;;;;;;2.53;1.48;;;;;;;;;;5004780;28;20452;-67
2023/08/07 01:31:51;;;;;;;1.95;1.50;;;;;;;;;;4970867;28;20056;-68
2023/08/07 01:34:17;;;;;;;1.88;1.40;;;;;;;;;;5008230;28;20112;-68
2023/08/07 01:36:42;;;;;;;1.75;1.23;;;;;;;;;;5007508;28;20406;-67
2023/08/07 01:39:08;;;;;;;1.83;1.50;;;;;;;;;;5003345;28;20041;-68
2023/08/07 01:41:33;;;;;;;2.05;1.50;;;;;;;;;;4987089;28;20053;-66
2023/08/07 01:43:58;;;;;;;2.17;1.40;;;;;;;;;;5005275;28;20045;-67
2023/08/07 01:46:24;;;;;;;3.35;1.80;;;;;;;;;;5005614;28;20165;-67
2023/08/07 01:48:49;;;;;;;1.80;1.40;;;;;;;;;;4979494;28;20140;-68
2023/08/07 01:51:14;;;;;;;2.83;1.53;;;;;;;;;;4988535;28;20339;-66
2023/08/07 01:53:39;;;;;;;2.92;1.60;;;;;;;;;;4986718;28;20276;-66
2023/08/07 01:56:05;;;;;;;1.93;1.53;;;;;;;;;;4987175;28;20113;-69
2023/08/07 01:58:30;;;;;;;1.90;1.40;;;;;;;;;;5012686;28;20335;-68
2023/08/07 02:00:55;;;;;;;2.30;1.57;;;;;;;;;;5019434;28;20070;-70
2023/08/07 02:03:20;;;;;;;2.78;1.60;;;;;;;;;;5024374;28;20292;-67
2023/08/07 02:05:46;;;;;;;2.97;1.33;;;;;;;;;;5023832;28;20033;-67
2023/08/07 02:08:11;;;;;;;2.40;1.52;;;;;;;;;;5023993;28;20696;-66
2023/08/07 02:10:36;;;;;;;1.77;1.52;;;;;;;;;;5011110;28;20078;-67
2023/08/07 02:13:02;;;;;;;2.10;1.70;;;;;;;;;;4986742;28;20037;-67
2023/08/07 02:15:27;;;;;;;2.22;1.58;;;;;;;;;;5004786;28;20029;-66
2023/08/07 02:17:52;;;;;;;2.65;1.80;;;;;;;;;;5004149;28;20061;-67
2023/08/07 02:20:18;;;;;;;2.45;1.60;;;;;;;;;;5017733;28;20050;-69
2023/08/07 02:22:43;;;;;;;1.80;1.45;;;;;;;;;;5016354;28;20735;-66
2023/08/07 02:25:08;;;;;;;1.60;1.40;;;;;;;;;;5024117;28;20032;-67
2023/08/07 02:27:33;;;;;;;1.80;1.33;;;;;;;;;;5022121;28;20037;-69
2023/08/07 02:29:59;;;;;;;2.88;1.23;;;;;;;;;;5009440;28;20037;-65
2023/08/07 02:32:24;;;;;;;2.20;1.70;;;;;;;;;;5024421;28;20092;-66
2023/08/07 02:34:49;;;;;;;3.00;1.43;;;;;;;;;;5023766;28;20495;-68
2023/08/07 02:37:15;;;;;;;2.37;1.50;;;;;;;;;;5023923;28;20409;-68
2023/08/07 02:39:41;;;;;;;1.58;1.48;;;;;;;;;;5014842;28;20299;-66
2023/08/07 02:42:06;;;;;;;2.07;1.70;;;;;;;;;;5005145;28;20077;-68
2023/08/07 02:44:31;;;;;;;2.10;1.33;;;;;;;;;;4986745;28;20415;-66
2023/08/07 02:46:56;;;;;;;2.25;1.40;;;;;;;;;;4988602;28;20037;-68
2023/08/07 02:49:22;;;;;;;1.73;1.50;;;;;;;;;;5005347;28;20049;-66
2023/08/07 02:51:47;;;;;;;1.87;1.40;;;;;;;;;;5004688;28;20107;-65
2023/08/07 02:54:12;;;;;;;2.17;1.35;;;;;;;;;;5004172;28;20280;-66
2023/08/07 04:54:42;;;;;;;2.83;1.95;;;;;;;;;;5079083;22;20498;-65
2023/08/07 04:57:08;;;;;;;4.03;1.73;;;;;;;;;;5067854;28;20468;-67
2023/08/07 04:59:33;;;;;;;2.20;2.00;;;;;;;;;;5068370;28;20316;-66
2023/08/07 05:01:58;;;;;;;3.30;1.77;;;;;;;;;;5067117;28;20370;-65
2023/08/07 05:04:23;;;;;;;3.23;1.90;;;;;;;;;;5047719;28;20056;-64
2023/08/07 05:06:48;;;;;;;3.57;2.10;;;;;;;;;;5043281;28;20029;-65
2023/08/07 05:09:17;;;;;;;5.70;2.27;;;;;;;;;;5042125;28;20099;-68
2023/08/07 05:11:42;;;;;;;4.43;1.98;;;;;;;;;;5038522;23;20037;-63
2023/08/07 05:14:07;;;;;;;2.30;2.07;;;;;;;;;;5052504;28;20556;-64
2023/08/07 05:16:32;;;;;;;4.00;1.80;;;;;;;;;;5052511;28;20676;-62
2023/08/07 05:18:58;;;;;;;3.77;2.00;;;;;;;;;;5049839;28;20445;-62
2023/08/07 05:21:23;;;;;;;3.57;2.20;;;;;;;;;;5050757;28;20024;-60
2023/08/07 05:23:52;;;;;;;2.72;1.90;;;;;;;;;;5052063;28;20437;-60
2023/08/07 05:26:18;;;;;;;3.85;2.17;;;;;;;;;;5048249;28;20710;-59
2023/08/07 05:28:43;;;;;;;2.90;2.10;;;;;;;;;;5068661;23;20040;-60
2023/08/07 05:31:08;;;;;;;2.55;2.10;;;;;;;;;;5071377;28;20894;-61
2023/08/07 05:33:33;;;;;;;2.13;1.80;;;;;;;;;;5074418;28;20028;-62
2023/08/07 05:35:59;;;;;;;2.50;2.10;;;;;;;;;;5072264;28;20298;-61
2023/08/07 05:38:24;;;;;;;3.70;1.80;;;;;;;;;;5073802;28;20814;-61
2023/08/07 05:40:49;;;;;;;2.10;1.73;;;;;;;;;;5073679;28;20051;-60
2023/08/07 05:43:16;;;;;;;3.10;1.60;;;;;;;;;;5074501;28;20306;-61
2023/08/07 05:45:42;;;;;;;2.40;1.70;;;;;;;;;;5073544;28;20032;-60
2023/08/07 05:48:09;;;;;;;2.88;1.65;;;;;;;;;;5073999;28;20079;-60
2023/08/07 05:50:34;;;;;;;2.30;2.00;;;;;;;;;;5072450;28;20046;-61
2023/08/07 05:52:59;;;;;;;3.93;1.97;;;;;;;;;;5070828;28;20066;-60
2023/08/07 05:55:25;;;;;;;3.00;1.92;;;;;;;;;;5061574;28;20123;-60
2023/08/07 05:57:50;;;;;;;3.72;2.10;;;;;;;;;;5058555;28;20556;-60
2023/08/07 06:00:17;;;;;;;1.85;1.63;;;;;;;;;;5058300;28;20033;-58
2023/08/07 06:02:43;;;;;;;2.95;1.83;;;;;;;;;;5065984;28;20537;-58
2023/08/07 06:05:09;;;;;;;3.15;1.90;;;;;;;;;;5046777;28;20065;-62
2023/08/07 06:07:34;;;;;;;2.13;1.65;;;;;;;;;;5054980;28;20417;-63
2023/08/07 06:09:59;;;;;;;3.83;1.83;;;;;;;;;;5063338;28;20090;-61
2023/08/07 06:12:25;;;;;;;2.20;1.73;;;;;;;;;;5065120;28;20437;-61
2023/08/07 06:14:50;;;;;;;2.07;1.53;;;;;;;;;;5064995;28;20052;-61
2023/08/07 06:17:15;;;;;;;2.27;1.90;;;;;;;;;;5064939;28;20661;-61
2023/08/07 06:19:40;;;;;;;2.57;1.87;;;;;;;;;;5039379;28;20278;-61
2023/08/07 06:22:06;;;;;;;2.77;1.90;;;;;;;;;;5065366;28;20283;-61
2023/08/07 06:24:31;;;;;;;3.67;1.90;;;;;;;;;;5051139;28;20043;-61
2023/08/07 06:26:56;;;;;;;2.83;1.80;;;;;;;;;;5058214;28;20672;-60
2023/08/07 06:29:21;;;;;;;3.00;1.70;;;;;;;;;;5053589;28;20047;-61
2023/08/07 06:31:47;;;;;;;2.83;1.80;;;;;;;;;;5063293;28;20043;-61
2023/08/07 06:34:12;;;;;;;2.88;1.60;;;;;;;;;;5067662;28;20502;-62
2023/08/07 06:36:37;;;;;;;2.13;1.65;;;;;;;;;;5046203;28;20036;-60
2023/08/07 06:39:03;;;;;;;1.90;1.60;;;;;;;;;;5064904;28;20036;-61
2023/08/07 06:41:29;;;;;;;1.95;1.58;;;;;;;;;;5057228;28;20312;-62
2023/08/07 06:43:54;;;;;;;1.93;1.60;;;;;;;;;;5060898;28;20045;-61
2023/08/07 06:46:24;;;;;;;1.70;1.30;;;;;;;;;;5064311;28;20174;-61
2023/08/07 06:48:49;;;;;;;3.90;1.30;;;;;;;;;;5046066;28;20675;-61
2023/08/07 06:51:15;;;;;;;2.90;1.37;;;;;;;;;;5050260;28;20497;-60
2023/08/07 06:53:40;;;;;;;2.20;1.60;;;;;;;;;;5058621;28;20430;-60
2023/08/07 06:56:05;;;;;;;4.10;1.30;;;;;;;;;;5053575;28;20071;-59
2023/08/07 06:58:30;;;;;;;2.00;1.10;;;;;;;;;;5058694;28;20064;-59
2023/08/07 07:00:56;;;;;;;2.53;1.10;;;;;;;;;;5057937;28;20305;-61
2023/08/07 07:03:21;;;;;;;2.90;1.00;;;;;;;;;;5057136;28;20320;-60
2023/08/07 07:05:46;;;;;;;2.13;0.80;;;;;;;;;;5058795;28;20455;-60
2023/08/07 07:08:12;;;;;;;1.52;1.08;;;;;;;;;;5036297;28;20158;-61
2023/08/07 07:10:37;;;;;;;1.70;1.00;;;;;;;;;;5056290;28;20044;-59
2023/08/07 07:13:02;;;;;;;1.48;0.73;;;;;;;;;;5057115;28;20041;-60
2023/08/07 07:15:27;;;;;;;1.25;0.88;;;;;;;;;;5056485;28;20513;-60
2023/08/07 07:17:53;;;;;;;1.60;1.00;;;;;;;;;;5038758;28;20124;-60
2023/08/07 07:20:18;;;;;;;2.25;1.00;;;;;;;;;;5057413;28;20298;-61
2023/08/07 07:22:43;;;;;;;2.53;0.90;;;;;;;;;;5055554;28;20036;-63
2023/08/07 07:25:09;;;;;;;1.77;1.20;;;;;;;;;;5053961;28;20111;-61
2023/08/07 07:27:34;;;;;;;1.77;1.08;;;;;;;;;;5058127;28;20044;-59
2023/08/07 07:29:59;;;;;;;3.45;0.80;;;;;;;;;;5061434;28;20060;-60
2023/08/07 07:32:26;;;;;;;1.33;0.82;;;;;;;;;;5060571;28;20368;-59
2023/08/07 07:34:51;;;;;;;1.77;0.90;;;;;;;;;;5056567;28;20079;-61
2023/08/07 07:37:16;;;;;;;2.50;1.00;;;;;;;;;;5053363;28;20041;-59
2023/08/07 07:39:42;;;;;;;4.65;1.25;;;;;;;;;;5057937;28;20504;-60
2023/08/07 07:42:07;;;;;;;2.13;0.98;;;;;;;;;;5062658;28;20035;-59
2023/08/07 07:44:35;;;;;;;4.93;1.45;;;;;;;;;;5041273;28;20051;-60
2023/08/07 07:47:00;;;;;;;2.30;1.25;;;;;;;;;;5062241;28;20032;-59
2023/08/07 07:49:25;;;;;;;3.00;1.27;;;;;;;;;;5060485;28;20414;-59
2023/08/07 07:51:50;;;;;;;1.40;1.00;;;;;;;;;;5061018;28;20067;-60
2023/08/07 07:54:16;;;;;;;1.50;1.23;;;;;;;;;;5061101;28;20037;-60
2023/08/07 07:56:42;;;;;;;2.70;1.40;;;;;;;;;;5062995;28;20037;-59
2023/08/07 07:59:07;;;;;;;2.70;1.30;;;;;;;;;;5061777;28;20036;-59
2023/08/07 08:01:32;;;;;;;2.03;1.43;;;;;;;;;;5062115;28;20033;-60
2023/08/07 08:03:57;;;;;;;1.97;1.27;;;;;;;;;;5062943;28;20045;-59
2023/08/07 08:06:23;;;;;;;2.53;1.30;;;;;;;;;;5062423;28;20043;-64
2023/08/07 08:08:48;;;;;;;4.23;1.43;;;;;;;;;;5064049;28;20036;-63
2023/08/07 08:11:13;;;;;;;3.23;1.23;;;;;;;;;;5063359;28;20359;-63
2023/08/07 08:13:40;;;;;;;2.20;1.40;;;;;;;;;;5045443;28;20119;-62
2023/08/07 08:16:06;;;;;;;2.05;1.33;;;;;;;;;;5064486;28;20083;-62
2023/08/07 08:18:31;;;;;;;1.77;1.00;;;;;;;;;;5064399;28;20058;-63
2023/08/07 08:20:56;;;;;;;3.35;1.10;;;;;;;;;;5054385;28;20288;-62
2023/08/07 08:23:21;;;;;;;1.40;1.10;;;;;;;;;;5066181;28;20044;-62
2023/08/07 08:25:47;;;;;;;2.10;1.20;;;;;;;;;;5063852;28;20290;-63
2023/08/07 08:28:12;;;;;;;2.38;1.20;;;;;;;;;;5064596;28;20637;-62
2023/08/07 08:30:38;;;;;;;3.10;1.13;;;;;;;;;;5063983;28;20064;-63
2023/08/07 08:33:05;;;;;;;2.43;1.00;;;;;;;;;;5064220;28;20282;-62
2023/08/07 08:35:30;;;;;;;1.70;1.10;;;;;;;;;;5064086;28;20374;-63
2023/08/07 08:37:56;;;;;;;1.55;1.00;;;;;;;;;;5063741;28;20861;-64
2023/08/07 08:40:21;;;;;;;2.13;1.02;;;;;;;;;;5063335;28;20464;-62
2023/08/07 08:42:46;;;;;;;1.43;1.00;;;;;;;;;;5062432;28;20052;-61
2023/08/07 08:45:14;;;;;;;1.50;1.00;;;;;;;;;;5054952;28;20029;-62
2023/08/07 08:47:40;;;;;;;2.33;0.98;;;;;;;;;;5029400;28;20045;-62
2023/08/07 08:50:09;;;;;;;3.13;0.98;;;;;;;;;;5062669;28;20465;-62
2023/08/07 08:52:40;;;;;;;1.60;1.13;;;;;;;;;;5064275;28;20502;-61
2023/08/07 08:55:06;;;;;;;2.38;1.13;;;;;;;;;;5063453;28;20037;-62
2023/08/07 08:57:31;;;;;;;1.60;1.00;;;;;;;;;;5046008;28;20163;-62
2023/08/07 08:59:56;;;;;;;1.30;0.93;;;;;;;;;;5063738;28;20449;-63
2023/08/07 09:02:22;;;;;;;2.03;0.70;;;;;;;;;;5064348;28;20580;-61
2023/08/07 09:04:47;;;;;;;1.77;1.10;;;;;;;;;;5064405;28;20461;-60
2023/08/07 09:07:13;;;;;;;1.33;0.87;;;;;;;;;;5064217;28;20568;-61
2023/08/07 09:09:38;;;;;;;1.45;0.80;;;;;;;;;;5045949;28;20437;-61
2023/08/07 09:12:04;;;;;;;1.30;0.95;;;;;;;;;;5064155;28;20098;-60
2023/08/07 09:14:31;;;;;;;2.00;1.20;;;;;;;;;;5064363;28;20040;-62
2023/08/07 09:16:57;;;;;;;1.92;1.10;;;;;;;;;;5064345;28;20063;-60
2023/08/07 09:19:22;;;;;;;1.55;1.05;;;;;;;;;;5046172;28;20471;-61
2023/08/07 09:21:47;;;;;;;2.33;1.07;;;;;;;;;;5064070;28;20748;-62
2023/08/07 09:24:13;;;;;;;1.80;1.07;;;;;;;;;;5063667;28;20575;-61
2023/08/07 09:26:38;;;;;;;1.60;1.00;;;;;;;;;;5063599;28;20282;-60
2023/08/07 09:29:04;;;;;;;1.92;1.33;;;;;;;;;;5064171;28;20041;-60
2023/08/07 09:31:30;;;;;;;1.48;1.00;;;;;;;;;;5067826;28;20033;-60
2023/08/07 09:34:00;;;;;;;1.35;0.98;;;;;;;;;;5067416;28;20128;-64
2023/08/07 09:36:25;;;;;;;2.25;1.10;;;;;;;;;;5049600;28;20044;-62
2023/08/07 09:38:51;;;;;;;2.20;0.90;;;;;;;;;;5067759;28;20037;-64
2023/08/07 09:41:19;;;;;;;2.07;1.00;;;;;;;;;;5067637;28;20044;-59
2023/08/07 09:43:45;;;;;;;1.55;1.08;;;;;;;;;;5068245;28;20052;-59
2023/08/07 09:46:10;;;;;;;1.92;1.13;;;;;;;;;;5067579;28;20040;-61
2023/08/07 09:48:42;;;;;;;3.23;0.90;;;;;;;;;;5067521;28;20032;-60
2023/08/07 09:51:08;;;;;;;1.67;1.08;;;;;;;;;;5049191;28;20798;-61
2023/08/07 09:53:33;;;;;;;1.30;1.00;;;;;;;;;;5067349;28;20815;-63
2023/08/07 09:55:58;;;;;;;1.10;0.80;;;;;;;;;;5066793;28;20016;-63
2023/08/07 09:58:24;;;;;;;2.10;0.95;;;;;;;;;;5049276;28;20345;-61
2023/08/07 10:00:49;;;;;;;1.42;1.00;;;;;;;;;;5067308;28;20095;-63
2023/08/07 10:03:14;;;;;;;1.80;0.82;;;;;;;;;;5067768;28;20040;-62
2023/08/07 10:05:40;;;;;;;1.27;0.98;;;;;;;;;;5066965;28;20146;-62
2023/08/07 10:08:05;;;;;;;1.63;1.08;;;;;;;;;;5049180;28;20016;-64
2023/08/07 10:10:31;;;;;;;1.20;0.93;;;;;;;;;;5067079;28;20020;-61
2023/08/07 10:12:57;;;;;;;1.35;1.00;;;;;;;;;;5049259;28;20351;-63
2023/08/07 10:15:22;;;;;;;2.27;0.90;;;;;;;;;;5049027;28;20528;-61
2023/08/07 10:17:47;;;;;;;1.13;0.80;;;;;;;;;;5067175;28;20505;-63
2023/08/07 10:20:12;;;;;;;1.60;1.00;;;;;;;;;;5049013;28;20685;-60
2023/08/07 10:22:38;;;;;;;2.55;1.10;;;;;;;;;;5049060;28;20539;-61
2023/08/07 10:25:03;;;;;;;1.83;1.00;;;;;;;;;;5066504;28;20021;-62
2023/08/07 10:27:32;;;;;;;1.52;1.05;;;;;;;;;;5066768;28;20024;-63
2023/08/07 10:29:58;;;;;;;2.40;0.90;;;;;;;;;;5048752;28;20138;-62
2023/08/07 10:32:23;;;;;;;1.20;0.93;;;;;;;;;;5032713;28;20023;-62
2023/08/07 10:34:51;;;;;;;2.57;0.80;;;;;;;;;;5064876;28;20023;-62
2023/08/07 10:37:34;;;;;;;4.47;1.13;;;;;;;;;;5066341;28;21890;-63
2023/08/07 10:40:05;;;;;;;2.58;1.00;;;;;;;;;;5066569;28;20035;-65
2023/08/07 10:42:49;;;;;;;3.58;0.90;;;;;;;;;;5062999;28;20063;-64
2023/08/07 10:45:16;;;;;;;1.23;0.95;;;;;;;;;;5065423;28;20493;-62
2023/08/07 10:47:41;;;;;;;2.33;0.95;;;;;;;;;;5066266;28;20048;-62
2023/08/07 10:50:07;;;;;;;1.37;0.80;;;;;;;;;;5066032;28;20065;-63
2023/08/07 10:52:32;;;;;;;1.88;0.95;;;;;;;;;;5066540;28;20325;-61
2023/08/07 10:54:57;;;;;;;2.27;1.17;;;;;;;;;;5065787;28;20037;-62
2023/08/07 10:57:23;;;;;;;3.92;1.10;;;;;;;;;;5066099;28;20314;-63
2023/08/07 10:59:51;;;;;;;1.63;0.90;;;;;;;;;;5065676;28;20035;-62
2023/08/07 11:02:23;;;;;;;2.47;1.10;;;;;;;;;;5065583;28;20044;-61
2023/08/07 11:04:49;;;;;;;2.65;1.05;;;;;;;;;;5039198;28;20071;-61
2023/08/07 11:07:22;;;;;;;3.03;1.10;;;;;;;;;;5036906;28;20490;-64
2023/08/07 11:09:47;;;;;;;1.95;1.10;;;;;;;;;;5034952;28;20026;-62
2023/08/07 11:12:13;;;;;;;1.50;0.95;;;;;;;;;;5034763;28;20155;-61
2023/08/07 11:14:38;;;;;;;2.20;0.90;;;;;;;;;;5049510;28;20605;-59
2023/08/07 11:17:03;;;;;;;2.05;0.90;;;;;;;;;;5032913;28;20036;-63
2023/08/07 11:19:28;;;;;;;3.17;0.90;;;;;;;;;;5032156;28;20127;-62
2023/08/07 11:21:54;;;;;;;2.03;0.97;;;;;;;;;;5053166;28;20602;-61
2023/08/07 11:24:21;;;;;;;1.48;1.00;;;;;;;;;;5033802;28;22677;-61
2023/08/07 11:26:46;;;;;;;2.05;1.02;;;;;;;;;;5060088;28;20114;-63
2023/08/07 11:29:15;;;;;;;2.30;1.17;;;;;;;;;;5036982;28;20028;-62
2023/08/07 11:31:41;;;;;;;3.33;1.00;;;;;;;;;;5035879;28;20043;-64
2023/08/07 11:34:06;;;;;;;2.00;1.20;;;;;;;;;;5058373;28;20029;-64
2023/08/07 11:36:33;;;;;;;1.30;0.90;;;;;;;;;;5060456;28;20043;-63
2023/08/07 11:38:58;;;;;;;1.55;1.08;;;;;;;;;;5039761;28;20425;-64
2023/08/07 11:41:23;;;;;;;2.20;1.00;;;;;;;;;;5059249;28;20028;-63
2023/08/07 11:43:49;;;;;;;2.93;1.20;;;;;;;;;;5061250;28;20299;-62
2023/08/07 11:46:14;;;;;;;1.97;0.93;;;;;;;;;;5059127;28;20128;-63
2023/08/07 11:48:40;;;;;;;1.80;0.82;;;;;;;;;;5057478;28;20298;-61
2023/08/07 11:51:06;;;;;;;1.75;0.82;;;;;;;;;;5057238;28;20115;-63
2023/08/07 11:53:33;;;;;;;1.98;1.00;;;;;;;;;;5054209;28;20051;-60
2023/08/07 11:56:03;;;;;;;2.55;0.90;;;;;;;;;;5052826;28;20123;-63
2023/08/07 11:58:33;;;;;;;2.13;1.00;;;;;;;;;;5041001;28;20043;-63
2023/08/07 12:00:58;;;;;;;;;;;;;;;;;;5055282;28;20033;-61
2023/08/07 12:03:27;;;;;;;1.17;0.70;;;;;;;;;;5057230;28;20525;-62
2023/08/07 12:05:53;;;;;;;1.20;0.80;;;;;;;;;;5055586;28;20054;-61
2023/08/07 12:08:18;;;;;;;2.22;0.95;;;;;;;;;;5055515;28;20036;-64
2023/08/07 12:10:44;;;;;;;1.00;0.73;;;;;;;;;;5036819;28;20032;-64
2023/08/07 12:13:09;;;;;;;2.15;1.23;;;;;;;;;;5056251;28;20047;-66
2023/08/07 12:15:34;;;;;;;1.60;1.00;;;;;;;;;;5039987;28;20044;-63
2023/08/07 12:18:00;;;;;;;2.07;1.10;;;;;;;;;;5055249;28;20029;-61
2023/08/07 12:20:26;;;;;;;1.48;0.90;;;;;;;;;;5038443;28;20136;-62
2023/08/07 12:22:52;;;;;;;1.98;0.88;;;;;;;;;;5057790;28;20066;-61
2023/08/07 12:25:17;;;;;;;1.70;1.00;;;;;;;;;;5031818;28;20032;-61
2023/08/07 12:27:42;;;;;;;1.92;0.90;;;;;;;;;;5046155;28;20110;-60
2023/08/07 12:30:07;;;;;;;1.30;0.80;;;;;;;;;;5056379;28;20089;-62
2023/08/07 12:32:33;;;;;;;2.03;0.95;;;;;;;;;;5056116;28;20048;-61
2023/08/07 12:34:58;;;;;;;1.33;0.93;;;;;;;;;;5054300;28;20090;-60
2023/08/07 12:37:23;;;;;;;2.30;1.10;;;;;;;;;;5055555;28;20037;-62
2023/08/07 12:39:48;;;;;;;2.08;1.00;;;;;;;;;;5056392;28;20089;-61
2023/08/07 12:42:14;;;;;;;1.40;1.00;;;;;;;;;;5056441;28;20122;-64
2023/08/07 12:44:39;;;;;;;1.63;1.00;;;;;;;;;;5055715;28;20309;-60
2023/08/07 12:47:04;;;;;;;1.97;1.00;;;;;;;;;;5055177;28;20406;-61
2023/08/07 12:49:30;;;;;;;2.40;1.00;;;;;;;;;;5053401;28;20290;-61
2023/08/07 12:51:57;;;;;;;1.60;0.90;;;;;;;;;;5057334;28;20025;-63
2023/08/07 12:54:23;;;;;;;2.13;1.10;;;;;;;;;;5064057;28;20062;-62
2023/08/07 12:56:48;;;;;;;2.00;1.03;;;;;;;;;;5063400;28;20522;-62
2023/08/07 12:59:13;;;;;;;1.70;1.00;;;;;;;;;;5063330;28;20295;-62
2023/08/07 13:01:38;;;;;;;2.10;0.90;;;;;;;;;;5064346;28;20033;-62
2023/08/07 13:04:05;;;;;;;1.80;1.20;;;;;;;;;;5060467;28;20076;-65
2023/08/07 13:06:30;;;;;;;1.70;1.10;;;;;;;;;;5072425;28;20349;-61
2023/08/07 13:08:56;;;;;;;1.50;0.90;;;;;;;;;;5080169;28;20114;-61
2023/08/07 13:11:21;;;;;;;4.72;1.10;;;;;;;;;;5064442;28;20281;-61
2023/08/07 13:13:47;;;;;;;2.33;1.10;;;;;;;;;;5066764;28;20045;-59
2023/08/07 13:16:12;;;;;;;2.00;1.20;;;;;;;;;;5065599;28;20289;-60
2023/08/07 13:18:37;;;;;;;2.60;1.23;;;;;;;;;;5067541;28;20339;-59
2023/08/07 13:21:03;;;;;;;2.07;1.20;;;;;;;;;;5049844;28;20336;-62
2023/08/07 13:23:28;;;;;;;2.08;1.20;;;;;;;;;;5066685;28;20764;-59
2023/08/07 13:25:54;;;;;;;2.47;1.13;;;;;;;;;;5067450;28;20403;-60
2023/08/07 13:28:19;;;;;;;1.52;1.02;;;;;;;;;;5067338;28;20291;-61
2023/08/07 13:30:44;;;;;;;2.22;1.10;;;;;;;;;;5068046;28;20115;-62
2023/08/07 13:33:10;;;;;;;2.85;1.02;;;;;;;;;;5067164;28;20029;-62
2023/08/07 13:35:35;;;;;;;2.03;1.20;;;;;;;;;;5067628;28;20143;-59
2023/08/07 13:38:04;;;;;;;1.87;1.43;;;;;;;;;;5067156;28;20036;-61
2023/08/07 13:40:30;;;;;;;2.47;1.20;;;;;;;;;;5066418;28;20305;-62
2023/08/07 13:42:55;;;;;;;2.43;1.07;;;;;;;;;;5046055;28;20052;-62
2023/08/07 13:45:20;;;;;;;1.67;0.93;;;;;;;;;;5045793;28;20781;-61
2023/08/07 13:47:46;;;;;;;1.52;1.10;;;;;;;;;;5026011;28;20499;-62
2023/08/07 13:50:12;;;;;;;3.30;0.80;;;;;;;;;;5045334;28;20489;-61
2023/08/07 13:52:37;;;;;;;2.63;0.98;;;;;;;;;;5047037;28;20170;-62
2023/08/07 13:55:03;;;;;;;2.03;1.13;;;;;;;;;;5063522;28;20032;-62
2023/08/07 13:57:28;;;;;;;2.30;0.90;;;;;;;;;;5066940;28;20807;-62
2023/08/07 13:59:54;;;;;;;1.63;1.17;;;;;;;;;;5067320;28;20033;-61
2023/08/07 14:02:19;;;;;;;3.05;1.00;;;;;;;;;;5047968;28;20041;-62
2023/08/07 14:04:45;;;;;;;2.28;0.98;;;;;;;;;;5047002;28;20479;-60
2023/08/07 14:07:10;;;;;;;1.50;0.80;;;;;;;;;;5065884;28;20040;-63
2023/08/07 14:09:36;;;;;;;1.40;0.90;;;;;;;;;;5066761;28;20076;-60
2023/08/07 14:12:02;;;;;;;2.17;0.90;;;;;;;;;;5066552;28;20425;-59
2023/08/07 14:14:27;;;;;;;1.67;1.17;;;;;;;;;;5067870;28;20135;-59
2023/08/07 14:16:56;;;;;;;1.67;1.05;;;;;;;;;;5073833;28;20099;-58
2023/08/07 14:19:21;;;;;;;2.10;1.33;;;;;;;;;;5066313;28;20035;-62
2023/08/07 14:21:46;;;;;;;2.13;1.20;;;;;;;;;;5031765;28;20028;-62
2023/08/07 14:24:12;;;;;;;2.80;0.90;;;;;;;;;;5047977;28;20184;-62
2023/08/07 14:26:37;;;;;;;1.43;0.97;;;;;;;;;;5045003;28;20044;-63
2023/08/07 14:29:02;;;;;;;1.42;0.90;;;;;;;;;;5062055;28;20043;-60
2023/08/07 14:31:28;;;;;;;1.20;0.90;;;;;;;;;;5065235;28;20031;-62
2023/08/07 14:33:53;;;;;;;1.80;1.02;;;;;;;;;;5058769;28;20032;-61
2023/08/07 14:36:18;;;;;;;1.47;1.00;;;;;;;;;;5064263;28;20055;-61
2023/08/07 14:38:43;;;;;;;1.53;1.00;;;;;;;;;;5066503;28;20027;-61
2023/08/07 14:41:09;;;;;;;1.60;1.10;;;;;;;;;;5065974;28;20263;-61
2023/08/07 14:43:34;;;;;;;2.33;1.10;;;;;;;;;;5065889;28;20953;-61
2023/08/07 14:45:59;;;;;;;1.80;0.93;;;;;;;;;;5065612;28;20077;-60
2023/08/07 14:48:24;;;;;;;2.10;0.73;;;;;;;;;;5047077;28;20024;-60
2023/08/07 14:50:50;;;;;;;1.93;1.17;;;;;;;;;;5065420;28;20659;-64
2023/08/07 14:53:15;;;;;;;2.83;1.15;;;;;;;;;;5065901;28;20414;-60
2023/08/07 14:55:41;;;;;;;2.13;0.83;;;;;;;;;;5064921;28;20024;-62
2023/08/07 14:58:06;;;;;;;2.63;1.20;;;;;;;;;;5065278;28;20024;-61
2023/08/07 15:00:32;;;;;;;3.00;1.47;;;;;;;;;;5047266;28;20494;-61
2023/08/07 15:03:00;;;;;;;2.35;1.00;;;;;;;;;;5063570;28;20545;-61
2023/08/07 15:05:25;;;;;;;1.88;1.17;;;;;;;;;;5043742;28;20411;-61
2023/08/07 15:07:51;;;;;;;1.67;1.10;;;;;;;;;;5064557;28;20044;-60
2023/08/07 15:10:16;;;;;;;2.17;1.10;;;;;;;;;;5064436;28;20020;-61
2023/08/07 15:12:41;;;;;;;2.27;1.20;;;;;;;;;;5064278;28;20034;-61
2023/08/07 15:15:06;;;;;;;3.53;1.10;;;;;;;;;;5064420;28;20254;-63
2023/08/07 15:17:32;;;;;;;2.78;1.10;;;;;;;;;;5065098;28;20384;-61
2023/08/07 15:19:57;;;;;;;3.42;1.25;;;;;;;;;;5064282;28;20414;-61
2023/08/07 15:22:22;;;;;;;1.40;0.90;;;;;;;;;;5063382;28;20024;-61
2023/08/07 15:24:48;;;;;;;2.83;1.00;;;;;;;;;;5064289;28;20282;-63
2023/08/07 15:27:13;;;;;;;1.53;0.97;;;;;;;;;;5080359;28;20024;-61
2023/08/07 15:29:41;;;;;;;2.17;1.00;;;;;;;;;;5074978;28;20270;-61
2023/08/07 15:32:07;;;;;;;2.20;1.08;;;;;;;;;;5064174;28;20056;-60
2023/08/07 15:34:32;;;;;;;1.98;0.80;;;;;;;;;;5049061;28;20115;-58
2023/08/07 15:36:57;;;;;;;2.43;1.20;;;;;;;;;;5059865;28;20044;-63
2023/08/07 15:39:23;;;;;;;1.65;1.10;;;;;;;;;;5059047;28;20759;-61
2023/08/07 15:41:48;;;;;;;1.15;0.88;;;;;;;;;;5063466;28;20151;-59
2023/08/07 15:44:14;;;;;;;3.15;1.35;;;;;;;;;;5041292;28;20419;-60
2023/08/07 15:46:40;;;;;;;4.05;1.20;;;;;;;;;;5043471;28;20041;-61
2023/08/07 15:49:05;;;;;;;2.13;1.00;;;;;;;;;;5041910;28;20041;-60
2023/08/07 15:51:30;;;;;;;3.87;1.17;;;;;;;;;;5054824;28;20037;-60
2023/08/07 15:53:57;;;;;;;2.20;0.90;;;;;;;;;;5058718;28;20032;-63
2023/08/07 15:56:22;;;;;;;1.75;1.02;;;;;;;;;;5041628;28;20305;-62
2023/08/07 15:58:48;;;;;;;2.63;1.37;;;;;;;;;;5029743;28;20514;-60
2023/08/07 16:01:13;;;;;;;1.73;1.10;;;;;;;;;;5031510;28;20292;-60
2023/08/07 16:03:38;;;;;;;2.40;1.17;;;;;;;;;;5030923;28;20128;-62
2023/08/07 16:06:03;;;;;;;2.72;1.58;;;;;;;;;;5045686;28;20033;-59
2023/08/07 16:08:29;;;;;;;3.13;1.33;;;;;;;;;;5028638;28;20089;-61
2023/08/07 16:10:54;;;;;;;3.47;1.40;;;;;;;;;;5052763;28;21060;-60
2023/08/07 16:13:20;;;;;;;2.80;1.15;;;;;;;;;;5040486;28;20366;-61
2023/08/07 16:15:46;;;;;;;2.25;1.20;;;;;;;;;;5040706;28;20033;-60
2023/08/07 16:18:11;;;;;;;1.80;1.17;;;;;;;;;;5032969;28;20055;-60
2023/08/07 16:20:37;;;;;;;3.38;1.30;;;;;;;;;;5034802;28;20033;-59
2023/08/07 16:23:02;;;;;;;2.42;1.13;;;;;;;;;;5043041;28;20057;-59
2023/08/07 16:25:28;;;;;;;2.38;1.30;;;;;;;;;;5035063;28;20029;-62
2023/08/07 16:27:53;;;;;;;2.65;1.08;;;;;;;;;;5036015;28;20033;-62
2023/08/07 16:30:18;;;;;;;2.27;1.30;;;;;;;;;;5035023;28;20517;-60
2023/08/07 16:32:44;;;;;;;2.28;1.23;;;;;;;;;;5035159;28;20358;-60